Time;durP1;ratioP1;P1;durP2;ratioP2;P2;SDS_P1;SDS_P2;PMS_P1;PMS_P2;Temp;Humidity;BMP_temperature;BMP_pressure;BME280_temperature;BME280_humidity;BME280_pressure;Samples;Min_cycle;Max_cycle;Signal;HPM_P1;HPM_P2
2023/09/25 00:01:46;;;;;;;3.43;1.20;;;25.30;99.90;;;;;;4991789;28;20652;-67
2023/09/25 00:04:14;;;;;;;2.93;1.00;;;25.00;99.90;;;;;;4994647;28;20788;-68
2023/09/25 00:06:42;;;;;;;2.03;1.00;;;25.00;99.90;;;;;;4990459;28;20178;-67
2023/09/25 00:09:11;;;;;;;3.00;1.17;;;25.30;99.90;;;;;;4998557;28;20533;-67
2023/09/25 00:11:38;;;;;;;6.47;0.90;;;25.70;99.90;;;;;;4966335;28;20286;-68
2023/09/25 00:14:05;;;;;;;6.13;1.00;;;25.70;98.60;;;;;;4979138;28;20764;-69
2023/09/25 00:16:33;;;;;;;2.50;0.97;;;25.50;98.60;;;;;;4986179;28;20199;-70
2023/09/25 00:19:00;;;;;;;2.47;1.03;;;25.90;98.30;;;;;;4972323;28;20214;-69
2023/09/25 00:21:27;;;;;;;2.80;0.90;;;25.50;98.50;;;;;;4995013;28;20566;-68
2023/09/25 00:23:55;;;;;;;4.60;0.93;;;25.80;96.60;;;;;;5009952;28;20754;-67
2023/09/25 00:26:22;;;;;;;1.83;1.13;;;26.50;93.60;;;;;;4987129;28;20666;-67
2023/09/25 00:28:49;;;;;;;4.10;1.17;;;26.70;91.80;;;;;;4977303;28;20534;-67
2023/09/25 00:31:17;;;;;;;2.57;1.27;;;26.60;93.50;;;;;;4982105;28;20211;-67
2023/09/25 00:33:44;;;;;;;4.20;1.03;;;26.90;90.70;;;;;;4957455;28;20191;-68
2023/09/25 00:36:11;;;;;;;1.83;1.00;;;26.70;89.30;;;;;;4979317;28;20186;-68
2023/09/25 00:38:38;;;;;;;6.10;1.50;;;26.50;86.10;;;;;;4994147;28;20199;-68
2023/09/25 00:41:06;;;;;;;3.53;0.80;;;27.10;87.50;;;;;;4994824;28;20179;-68
2023/09/25 00:43:33;;;;;;;5.70;1.00;;;26.80;82.50;;;;;;4994710;28;20179;-69
2023/09/25 00:46:01;;;;;;;3.83;1.13;;;27.00;82.50;;;;;;4993986;28;20185;-67
2023/09/25 00:48:30;;;;;;;1.67;0.77;;;27.30;81.30;;;;;;4989335;28;20696;-68
2023/09/25 00:51:00;;;;;;;14.50;1.27;;;26.40;79.70;;;;;;4971563;28;20190;-67
2023/09/25 00:53:29;;;;;;;1.63;0.87;;;26.80;81.40;;;;;;4988203;28;20643;-69
2023/09/25 00:55:57;;;;;;;2.50;0.97;;;27.00;74.70;;;;;;4994294;28;20281;-68
2023/09/25 00:58:25;;;;;;;5.67;1.20;;;27.30;72.90;;;;;;4975161;28;20554;-68
2023/09/25 01:00:54;;;;;;;5.07;1.17;;;27.10;76.50;;;;;;4994020;28;20273;-69
2023/09/25 01:03:21;;;;;;;7.70;1.50;;;27.40;72.70;;;;;;4989982;28;20186;-68
2023/09/25 01:05:48;;;;;;;6.73;1.13;;;28.00;66.90;;;;;;4984202;28;20651;-68
2023/09/25 01:08:16;;;;;;;7.17;0.93;;;28.30;62.60;;;;;;4981447;28;20262;-67
2023/09/25 01:10:44;;;;;;;2.00;0.80;;;28.40;60.90;;;;;;4974284;28;20199;-67
2023/09/25 01:13:11;;;;;;;3.23;1.00;;;28.20;59.40;;;;;;4984199;28;20195;-68
2023/09/25 01:15:39;;;;;;;3.27;0.90;;;28.30;58.30;;;;;;4985571;28;20546;-68
2023/09/25 01:18:07;;;;;;;2.73;1.03;;;27.90;55.50;;;;;;4993789;28;20171;-68
2023/09/25 01:20:37;;;;;;;4.13;1.10;;;27.30;56.40;;;;;;4994000;28;20273;-68
2023/09/25 01:23:05;;;;;;;4.30;1.10;;;28.00;58.80;;;;;;4994223;28;20235;-68
2023/09/25 01:25:32;;;;;;;3.67;0.90;;;29.10;55.80;;;;;;4977175;28;20197;-67
2023/09/25 01:27:59;;;;;;;5.63;1.00;;;29.60;47.80;;;;;;4994468;28;20241;-69
2023/09/25 01:30:28;;;;;;;3.57;1.17;;;29.30;48.30;;;;;;4969149;28;20640;-67
2023/09/25 01:32:55;;;;;;;4.20;1.07;;;29.50;49.20;;;;;;4992263;28;20190;-68
2023/09/25 01:35:25;;;;;;;6.10;1.20;;;30.00;46.40;;;;;;4983614;28;20218;-67
2023/09/25 01:37:57;;;;;;;2.30;1.07;;;30.60;42.50;;;;;;4992471;28;20187;-68
2023/09/25 01:40:25;;;;;;;6.53;0.70;;;30.70;38.00;;;;;;4993340;28;20181;-68
2023/09/25 01:53:00;;;;;;;7.63;1.00;;;29.20;36.60;;;;;;4982122;28;20208;-68
2023/09/25 01:55:35;;;;;;;6.57;1.13;;;29.60;33.70;;;;;;4984282;28;20246;-67
2023/09/25 01:58:03;;;;;;;4.83;1.20;;;29.80;33.70;;;;;;4984394;28;20191;-68
2023/09/25 02:00:31;;;;;;;7.00;0.95;;;29.10;35.90;;;;;;4982255;28;20179;-68
2023/09/25 02:02:58;;;;;;;3.90;1.07;;;29.10;33.50;;;;;;4982374;28;20183;-68
2023/09/25 02:05:25;;;;;;;1.70;0.73;;;29.80;33.50;;;;;;4985994;28;20578;-67
2023/09/25 02:07:53;;;;;;;3.73;0.90;;;30.60;33.80;;;;;;4984122;28;20179;-67
2023/09/25 02:10:21;;;;;;;4.20;1.20;;;30.80;31.40;;;;;;4974585;28;20275;-68
2023/09/25 02:12:48;;;;;;;5.57;1.20;;;29.70;29.00;;;;;;4974484;28;20179;-67
2023/09/25 02:15:16;;;;;;;2.60;0.60;;;29.80;29.00;;;;;;4974570;28;20237;-67
2023/09/25 02:17:43;;;;;;;2.40;0.90;;;30.50;28.10;;;;;;4974370;28;20202;-68
2023/09/25 02:20:17;;;;;;;4.43;1.02;;;30.00;26.10;;;;;;4975375;28;20217;-67
2023/09/25 02:22:53;;;;;;;3.60;0.67;;;29.70;23.90;;;;;;4974701;28;20187;-69
2023/09/25 02:25:20;;;;;;;1.67;0.87;;;29.70;23.40;;;;;;4973763;28;20195;-67
2023/09/25 02:27:48;;;;;;;4.03;0.85;;;30.30;22.30;;;;;;4974685;28;20235;-67
2023/09/25 02:30:16;;;;;;;1.23;0.57;;;31.00;26.00;;;;;;4974509;28;20176;-68
2023/09/25 02:32:44;;;;;;;1.60;0.80;;;31.80;17.30;;;;;;4974380;28;20254;-67
2023/09/25 02:35:12;;;;;;;4.00;1.10;;;32.00;16.80;;;;;;4974212;28;20305;-67
2023/09/25 02:37:40;;;;;;;2.78;1.02;;;31.70;18.90;;;;;;4974358;28;20178;-68
2023/09/25 02:40:17;;;;;;;1.90;0.90;;;31.30;18.20;;;;;;4974269;28;20194;-68
2023/09/25 02:42:47;;;;;;;2.67;0.85;;;30.70;15.50;;;;;;4974408;28;20552;-69
2023/09/25 02:45:15;;;;;;;2.83;0.80;;;30.80;17.40;;;;;;4974456;28;20257;-68
2023/09/25 02:47:43;;;;;;;3.53;0.98;;;30.90;15.80;;;;;;4974364;28;20180;-67
2023/09/25 02:50:12;;;;;;;1.58;0.75;;;31.40;15.20;;;;;;4974166;28;20194;-68
2023/09/25 02:52:39;;;;;;;4.40;0.80;;;31.40;16.60;;;;;;4974313;28;20167;-68
2023/09/25 02:55:07;;;;;;;2.78;1.00;;;31.80;13.10;;;;;;4974283;28;20249;-68
2023/09/25 02:57:34;;;;;;;7.22;0.95;;;31.90;14.70;;;;;;4974037;28;20190;-68
2023/09/25 03:00:05;;;;;;;1.23;0.60;;;31.70;15.70;;;;;;4974188;28;20538;-67
2023/09/25 03:02:32;;;;;;;2.25;0.85;;;31.60;14.30;;;;;;4974124;28;20665;-68
2023/09/25 03:04:59;;;;;;;2.88;1.00;;;31.60;15.50;;;;;;4974010;28;20266;-67
2023/09/25 03:07:27;;;;;;;3.28;0.73;;;31.90;13.30;;;;;;4974222;28;20176;-67
2023/09/25 03:09:55;;;;;;;3.40;0.93;;;31.30;12.10;;;;;;4974076;28;20186;-68
2023/09/25 03:12:22;;;;;;;3.25;1.00;;;31.50;12.50;;;;;;4974052;28;20183;-68
2023/09/25 03:14:49;;;;;;;3.08;0.80;;;31.50;12.20;;;;;;4973996;28;20215;-67
2023/09/25 03:17:17;;;;;;;1.55;0.70;;;31.50;11.30;;;;;;4973886;28;20178;-67
2023/09/25 03:19:44;;;;;;;2.78;0.70;;;31.60;9.60;;;;;;4957062;28;20186;-67
2023/09/25 03:22:12;;;;;;;1.73;0.73;;;31.90;11.40;;;;;;4974079;28;20226;-66
2023/09/25 03:24:39;;;;;;;4.53;0.90;;;31.90;9.70;;;;;;4973699;28;20666;-68
2023/09/25 03:27:07;;;;;;;1.58;0.70;;;31.60;12.80;;;;;;4973830;28;20175;-67
2023/09/25 03:29:34;;;;;;;1.27;0.50;;;31.60;11.70;;;;;;4973916;28;20175;-68
2023/09/25 03:32:02;;;;;;;4.28;1.00;;;31.90;9.50;;;;;;4973727;28;20176;-69
2023/09/25 03:34:29;;;;;;;4.63;0.90;;;32.00;9.70;;;;;;4973997;28;20203;-67
2023/09/25 03:36:56;;;;;;;0.70;0.40;;;31.60;9.30;;;;;;4976301;28;20175;-67
2023/09/25 03:39:24;;;;;;;4.25;0.75;;;31.50;11.30;;;;;;4977597;28;20191;-68
2023/09/25 03:41:51;;;;;;;2.85;0.95;;;31.60;10.90;;;;;;4977317;28;20183;-69
2023/09/25 03:44:19;;;;;;;4.93;1.13;;;31.80;12.40;;;;;;4977452;28;20207;-68
2023/09/25 03:46:47;;;;;;;3.75;1.10;;;31.60;10.70;;;;;;4977288;28;20258;-67
2023/09/25 03:49:14;;;;;;;2.95;0.90;;;31.30;10.30;;;;;;4977535;28;20175;-67
2023/09/25 03:51:41;;;;;;;1.83;0.63;;;31.20;8.10;;;;;;4977237;28;20580;-68
2023/09/25 03:54:09;;;;;;;1.20;0.70;;;31.10;9.40;;;;;;4977800;28;20262;-69
2023/09/25 03:56:36;;;;;;;7.75;0.80;;;30.60;9.00;;;;;;4977168;28;20191;-69
2023/09/25 03:59:04;;;;;;;3.30;0.73;;;30.60;9.70;;;;;;4977318;28;20175;-67
2023/09/25 04:01:31;;;;;;;1.35;0.88;;;30.60;9.50;;;;;;4977433;28;20234;-68
2023/09/25 04:03:58;;;;;;;1.47;0.60;;;30.30;10.10;;;;;;4977177;28;20178;-67
2023/09/25 04:06:26;;;;;;;1.20;0.70;;;30.30;11.20;;;;;;4977541;28;20640;-68
2023/09/25 04:08:53;;;;;;;5.75;1.17;;;30.20;9.80;;;;;;4977011;28;20176;-68
2023/09/25 04:11:20;;;;;;;6.00;1.30;;;30.60;9.80;;;;;;4977105;28;20175;-67
2023/09/25 04:13:48;;;;;;;2.40;0.80;;;30.70;9.60;;;;;;4976822;28;20659;-67
2023/09/25 04:16:16;;;;;;;3.63;0.90;;;30.70;11.10;;;;;;4976991;28;20176;-68
2023/09/25 04:18:43;;;;;;;8.83;1.40;;;30.70;8.80;;;;;;4976862;28;20192;-67
2023/09/25 04:21:17;;;;;;;1.17;0.63;;;30.70;11.40;;;;;;4976789;28;20251;-67
2023/09/25 04:23:44;;;;;;;3.73;1.00;;;30.80;10.20;;;;;;4976743;28;20293;-67
2023/09/25 04:26:12;;;;;;;1.07;0.80;;;30.80;8.60;;;;;;4976829;28;20246;-67
2023/09/25 04:28:42;;;;;;;2.23;0.83;;;30.50;8.50;;;;;;4976595;28;20179;-67
2023/09/25 04:31:10;;;;;;;4.20;0.80;;;30.50;8.90;;;;;;4977399;28;20171;-67
2023/09/25 04:33:38;;;;;;;2.90;1.03;;;30.60;9.00;;;;;;4976344;28;20542;-67
2023/09/25 04:36:10;;;;;;;1.73;0.82;;;30.70;9.60;;;;;;4976684;28;20550;-69
2023/09/25 04:38:37;;;;;;;2.87;0.80;;;30.70;8.90;;;;;;4976473;28;20198;-68
2023/09/25 04:41:05;;;;;;;2.70;1.00;;;30.70;8.10;;;;;;4976489;28;20223;-67
2023/09/25 04:43:33;;;;;;;1.73;0.70;;;30.70;8.40;;;;;;4976398;28;20183;-67
2023/09/25 04:46:01;;;;;;;5.47;0.93;;;30.70;7.70;;;;;;4976344;28;20212;-67
2023/09/25 04:48:31;;;;;;;1.60;0.80;;;30.00;6.90;;;;;;4958172;28;20274;-68
2023/09/25 04:50:58;;;;;;;3.00;0.90;;;30.10;8.40;;;;;;4976581;28;20179;-69
2023/09/25 04:53:26;;;;;;;4.37;0.80;;;30.20;10.50;;;;;;4979603;28;20180;-68
2023/09/25 04:55:54;;;;;;;4.83;0.77;;;30.40;8.60;;;;;;4986603;28;20190;-72
2023/09/25 04:58:21;;;;;;;3.43;0.90;;;30.30;10.80;;;;;;4959660;28;20206;-70
2023/09/25 05:00:48;;;;;;;5.10;1.13;;;30.30;8.00;;;;;;4974226;28;20194;-72
2023/09/25 05:03:16;;;;;;;6.00;0.97;;;30.40;8.10;;;;;;4993242;28;20198;-72
2023/09/25 05:09:05;;;;;;;3.57;0.83;;;30.10;8.10;;;;;;5012475;28;20185;-71
2023/09/25 05:11:33;;;;;;;2.37;0.90;;;29.70;8.20;;;;;;4988028;28;20194;-73
2023/09/25 05:14:00;;;;;;;3.90;1.00;;;29.40;8.70;;;;;;4993706;28;20644;-72
2023/09/25 05:16:27;;;;;;;5.30;0.90;;;29.10;8.60;;;;;;4993975;28;20183;-71
2023/09/25 05:18:57;;;;;;;1.63;0.80;;;28.80;9.30;;;;;;4985280;28;20184;-71
2023/09/25 05:21:25;;;;;;;2.30;0.73;;;28.80;10.10;;;;;;4990353;28;20182;-71
2023/09/25 05:23:52;;;;;;;4.03;1.20;;;28.60;9.20;;;;;;4974348;28;20295;-71
2023/09/25 05:26:20;;;;;;;5.67;1.20;;;28.80;9.30;;;;;;4974575;28;20183;-72
2023/09/25 05:28:47;;;;;;;3.97;1.00;;;28.90;10.40;;;;;;4973815;28;20186;-71
2023/09/25 05:31:14;;;;;;;1.53;0.77;;;29.10;9.00;;;;;;4974884;28;20183;-70
2023/09/25 05:33:42;;;;;;;4.20;1.10;;;29.10;10.10;;;;;;4993577;28;20258;-72
2023/09/25 05:36:09;;;;;;;3.30;1.00;;;29.20;10.20;;;;;;4993026;28;20178;-71
2023/09/25 05:38:37;;;;;;;5.07;1.10;;;29.30;11.00;;;;;;4993640;28;20174;-72
2023/09/25 05:41:04;;;;;;;2.70;0.87;;;29.20;10.50;;;;;;4992773;28;20213;-71
2023/09/25 05:43:32;;;;;;;4.80;1.00;;;29.30;10.80;;;;;;4973798;28;20198;-71
2023/09/25 05:45:59;;;;;;;5.03;1.13;;;29.10;10.10;;;;;;4974005;28;20599;-70
2023/09/25 05:48:26;;;;;;;3.27;0.90;;;29.30;10.70;;;;;;4973894;28;20180;-72
2023/09/25 05:50:53;;;;;;;7.40;1.10;;;29.20;10.00;;;;;;4974098;28;20624;-72
2023/09/25 05:53:22;;;;;;;4.47;1.00;;;29.30;9.60;;;;;;4993173;28;20217;-75
2023/09/25 05:55:49;;;;;;;3.97;0.77;;;28.90;9.30;;;;;;4991098;28;20235;-72
2023/09/25 05:58:16;;;;;;;2.67;0.97;;;29.00;9.70;;;;;;4980452;28;20195;-72
2023/09/25 06:00:46;;;;;;;2.03;0.83;;;29.10;10.90;;;;;;4968704;28;20432;-71
2023/09/25 06:03:14;;;;;;;2.30;0.80;;;29.20;9.60;;;;;;4974149;28;20262;-70
2023/09/25 06:05:43;;;;;;;2.33;1.00;;;29.20;9.80;;;;;;4955699;28;20226;-70
2023/09/25 06:08:10;;;;;;;3.37;0.90;;;29.10;11.00;;;;;;4956563;28;20215;-71
2023/09/25 06:10:37;;;;;;;7.83;1.13;;;29.10;17.10;;;;;;4975069;28;20170;-72
2023/09/25 06:13:05;;;;;;;6.87;1.30;;;28.70;18.40;;;;;;4973224;28;20223;-72
2023/09/25 06:15:32;;;;;;;2.50;1.10;;;28.30;18.90;;;;;;4973253;28;20711;-72
2023/09/25 06:18:00;;;;;;;3.60;1.00;;;27.90;19.40;;;;;;4973459;28;20194;-71
2023/09/25 06:20:28;;;;;;;2.17;0.93;;;27.70;20.00;;;;;;4955571;28;20198;-70
2023/09/25 06:22:55;;;;;;;4.23;1.20;;;27.70;21.40;;;;;;4992612;28;20190;-71
2023/09/25 06:25:24;;;;;;;3.20;1.27;;;27.70;22.40;;;;;;4992858;28;20304;-72
2023/09/25 06:27:51;;;;;;;2.27;1.40;;;27.70;21.80;;;;;;4974280;28;20232;-72
2023/09/25 06:30:19;;;;;;;4.57;1.43;;;27.80;22.20;;;;;;4992702;28;20210;-72
2023/09/25 06:32:46;;;;;;;4.77;1.20;;;28.00;23.30;;;;;;4992022;28;20237;-71
2023/09/25 06:35:14;;;;;;;3.67;1.47;;;28.00;22.90;;;;;;4992408;28;20183;-70
2023/09/25 06:37:41;;;;;;;3.37;1.30;;;27.80;23.50;;;;;;4992011;28;20541;-70
2023/09/25 06:40:09;;;;;;;4.33;1.10;;;27.60;23.40;;;;;;4992119;28;20194;-71
2023/09/25 06:42:38;;;;;;;1.33;1.20;;;27.30;23.70;;;;;;4974906;28;20195;-71
2023/09/25 06:45:06;;;;;;;2.60;1.17;;;27.20;24.90;;;;;;4973236;28;20695;-72
2023/09/25 06:47:35;;;;;;;4.67;1.40;;;27.00;25.50;;;;;;4972950;28;20767;-71
2023/09/25 06:50:02;;;;;;;6.90;1.63;;;26.90;26.40;;;;;;4972627;28;20731;-73
2023/09/25 06:52:29;;;;;;;2.93;1.40;;;27.00;26.90;;;;;;4973667;28;20187;-73
2023/09/25 06:54:57;;;;;;;1.93;1.13;;;26.90;27.40;;;;;;4973044;28;20198;-71
2023/09/25 06:57:25;;;;;;;5.87;1.33;;;26.70;28.10;;;;;;4954950;28;20576;-72
2023/09/25 06:59:53;;;;;;;3.27;1.53;;;26.70;28.60;;;;;;4976978;28;20190;-72
2023/09/25 07:02:20;;;;;;;2.97;1.37;;;26.70;28.80;;;;;;4974474;28;20614;-73
2023/09/25 07:04:47;;;;;;;4.73;1.67;;;26.70;29.60;;;;;;4979242;28;20641;-73
2023/09/25 07:07:16;;;;;;;2.23;1.20;;;26.70;30.00;;;;;;4973922;28;20197;-72
2023/09/25 07:09:44;;;;;;;6.30;2.07;;;26.70;30.20;;;;;;4980804;28;20191;-71
2023/09/25 07:12:15;;;;;;;5.60;1.90;;;26.70;30.70;;;;;;4975487;28;20556;-71
2023/09/25 07:14:58;;;;;;;6.87;2.07;;;26.70;30.90;;;;;;4984413;28;20209;-72
2023/09/25 07:17:27;;;;;;;3.10;1.77;;;26.50;30.00;;;;;;4994108;28;20194;-72
2023/09/25 07:19:56;;;;;;;4.50;1.83;;;26.30;31.30;;;;;;4976229;28;20652;-72
2023/09/25 07:22:28;;;;;;;3.73;2.00;;;26.10;31.90;;;;;;4990301;28;20191;-71
2023/09/25 07:24:56;;;;;;;3.23;1.97;;;26.00;33.50;;;;;;4975254;28;20233;-72
2023/09/25 07:27:28;;;;;;;7.07;2.27;;;25.80;34.70;;;;;;4975943;28;20187;-73
2023/09/25 07:29:56;;;;;;;9.83;1.80;;;25.70;34.90;;;;;;4976278;28;20186;-73
2023/09/25 07:32:23;;;;;;;3.70;1.60;;;25.60;36.10;;;;;;4976471;28;20183;-71
2023/09/25 07:34:54;;;;;;;2.93;1.77;;;25.40;37.10;;;;;;4977129;28;20179;-73
2023/09/25 07:37:24;;;;;;;3.13;1.60;;;25.20;38.70;;;;;;4984358;28;20193;-72
2023/09/25 07:39:51;;;;;;;3.63;1.70;;;25.10;40.60;;;;;;4978653;28;20191;-72
2023/09/25 07:42:20;;;;;;;4.40;1.87;;;24.90;42.70;;;;;;4995255;28;20641;-72
2023/09/25 07:44:48;;;;;;;4.27;1.77;;;24.90;43.20;;;;;;4994135;28;20228;-71
2023/09/25 07:47:18;;;;;;;2.53;1.43;;;24.80;44.40;;;;;;4975862;28;20195;-71
2023/09/25 07:49:45;;;;;;;3.83;1.50;;;24.70;44.70;;;;;;4975767;28;20190;-73
2023/09/25 07:52:16;;;;;;;3.00;1.30;;;24.70;46.00;;;;;;4976199;28;20274;-74
2023/09/25 07:58:06;;;;;;;3.90;2.10;;;24.50;48.50;;;;;;4975769;28;20214;-71
2023/09/25 08:00:39;;;;;;;3.43;1.73;;;24.30;50.80;;;;;;4984825;28;20282;-71
2023/09/25 08:03:09;;;;;;;4.33;1.87;;;24.20;53.00;;;;;;4975911;28;20978;-70
2023/09/25 08:05:37;;;;;;;4.63;1.90;;;23.90;54.90;;;;;;4975175;28;20218;-72
2023/09/25 08:08:06;;;;;;;3.50;1.90;;;23.70;57.30;;;;;;4975218;28;20193;-71
2023/09/25 08:10:34;;;;;;;3.10;1.60;;;23.60;59.20;;;;;;4958145;28;20199;-71
2023/09/25 08:13:01;;;;;;;4.83;1.87;;;23.50;61.70;;;;;;4975538;28;20203;-70
2023/09/25 08:15:29;;;;;;;4.20;1.73;;;23.30;63.90;;;;;;4988098;28;20179;-70
2023/09/25 08:17:57;;;;;;;3.93;1.70;;;23.20;67.20;;;;;;4975326;28;20191;-73
2023/09/25 08:20:26;;;;;;;5.67;2.20;;;23.10;72.00;;;;;;4975336;28;20191;-70
2023/09/25 08:22:54;;;;;;;8.43;2.03;;;23.10;82.80;;;;;;4974448;28;20229;-71
2023/09/25 08:25:23;;;;;;;4.90;2.00;;;22.80;96.80;;;;;;4975440;28;20243;-72
2023/09/25 08:27:51;;;;;;;7.03;2.30;;;22.70;99.90;;;;;;4957793;28;20227;-71
2023/09/25 08:30:19;;;;;;;7.47;2.37;;;22.60;99.90;;;;;;4975253;28;20238;-73
2023/09/25 08:32:47;;;;;;;6.23;2.17;;;22.40;99.90;;;;;;4958103;28;20198;-71
2023/09/25 08:35:15;;;;;;;7.03;2.10;;;22.20;99.90;;;;;;4974770;28;20281;-71
2023/09/25 08:37:45;;;;;;;3.93;2.10;;;22.10;99.90;;;;;;4975465;28;20183;-72
2023/09/25 08:40:14;;;;;;;4.47;1.80;;;21.90;99.90;;;;;;4989897;28;20221;-71
2023/09/25 08:42:48;;;;;;;6.43;1.40;;;21.80;99.90;;;;;;4976855;28;20644;-71
2023/09/25 08:45:17;;;;;;;8.17;2.07;;;21.60;99.90;;;;;;4994707;28;20212;-71
2023/09/25 08:47:46;;;;;;;6.17;2.03;;;21.50;99.90;;;;;;4994209;28;20585;-71
2023/09/25 08:50:14;;;;;;;8.53;2.23;;;21.40;99.90;;;;;;4993790;28;20190;-74
2023/09/25 08:52:42;;;;;;;6.77;1.87;;;21.30;99.90;;;;;;4994704;28;20183;-72
2023/09/25 08:55:10;;;;;;;4.43;1.70;;;21.20;99.90;;;;;;4987505;28;20656;-73
2023/09/25 08:57:38;;;;;;;4.53;1.90;;;21.00;99.90;;;;;;4974086;28;20538;-72
2023/09/25 09:00:14;;;;;;;7.67;1.70;;;21.00;99.90;;;;;;4974650;28;20190;-70
2023/09/25 09:02:43;;;;;;;9.07;1.60;;;21.00;99.90;;;;;;4974463;28;20556;-70
2023/09/25 09:05:14;;;;;;;7.33;2.23;;;20.90;99.90;;;;;;4974804;28;20230;-71
2023/09/25 09:08:15;;;;;;;6.73;2.20;;;20.90;99.90;;;;;;4974640;28;20182;-71
2023/09/25 09:10:47;;;;;;;11.03;2.10;;;20.90;99.90;;;;;;4975221;28;20221;-71
2023/09/25 09:13:16;;;;;;;9.90;2.27;;;20.80;99.90;;;;;;4957896;28;20275;-71
2023/09/25 09:15:47;;;;;;;7.30;2.00;;;20.80;99.90;;;;;;4974852;28;20195;-72
2023/09/25 09:18:24;;;;;;;3.47;1.87;;;20.80;99.90;;;;;;4956642;28;20202;-72
2023/09/25 09:20:52;;;;;;;7.03;2.10;;;20.70;99.90;;;;;;4984238;28;20204;-72
2023/09/25 09:23:20;;;;;;;9.47;2.27;;;20.60;99.90;;;;;;4993932;28;20175;-73
2023/09/25 09:25:51;;;;;;;6.27;2.07;;;20.50;99.90;;;;;;4993326;28;20218;-72
2023/09/25 09:28:21;;;;;;;9.83;2.27;;;20.50;99.90;;;;;;4990702;28;20180;-70
2023/09/25 09:30:50;;;;;;;10.07;2.60;;;20.40;99.90;;;;;;4974260;28;20660;-71
2023/09/25 09:33:19;;;;;;;7.27;2.40;;;20.30;99.90;;;;;;4973737;28;20729;-69
2023/09/25 09:35:50;;;;;;;9.23;2.00;;;20.30;99.90;;;;;;4974903;28;20637;-71
2023/09/25 09:38:20;;;;;;;7.00;2.20;;;20.20;99.90;;;;;;4966256;28;20644;-70
2023/09/25 09:40:48;;;;;;;4.37;2.07;;;20.20;99.90;;;;;;4993071;28;20185;-70
2023/09/25 09:43:18;;;;;;;8.17;2.20;;;20.10;99.90;;;;;;4993457;28;20175;-71
2023/09/25 09:45:50;;;;;;;11.00;1.83;;;20.10;99.90;;;;;;4975210;28;20220;-72
2023/09/25 09:48:20;;;;;;;6.20;1.97;;;20.10;99.90;;;;;;4992721;28;20187;-71
2023/09/25 09:50:53;;;;;;;12.77;2.27;;;20.00;99.90;;;;;;4976385;28;20182;-71
2023/09/25 09:53:22;;;;;;;6.07;2.40;;;19.90;99.90;;;;;;4993583;28;20177;-70
2023/09/25 09:55:51;;;;;;;6.40;2.23;;;19.90;99.90;;;;;;4992726;28;20194;-70
2023/09/25 09:58:19;;;;;;;3.90;2.20;;;19.90;99.90;;;;;;4992410;28;20188;-70
2023/09/25 10:00:48;;;;;;;9.07;3.97;;;19.90;99.90;;;;;;4975484;28;20228;-71
2023/09/25 10:03:17;;;;;;;11.10;3.20;;;19.80;99.90;;;;;;4987387;28;20267;-71
2023/09/25 10:05:52;;;;;;;8.27;2.13;;;19.80;99.90;;;;;;4974962;28;20236;-72
2023/09/25 10:08:23;;;;;;;7.13;2.43;;;19.80;99.90;;;;;;4974879;28;20205;-69
2023/09/25 10:10:52;;;;;;;8.27;2.20;;;19.70;99.90;;;;;;4986741;28;20652;-70
2023/09/25 10:13:29;;;;;;;4.53;2.23;;;19.50;99.90;;;;;;4994136;28;20183;-70
2023/09/25 10:16:01;;;;;;;7.17;2.20;;;19.40;99.90;;;;;;4993457;28;20633;-70
2023/09/25 10:18:30;;;;;;;4.70;2.07;;;19.30;99.90;;;;;;4993196;28;20180;-70
2023/09/25 10:21:10;;;;;;;8.00;2.33;;;19.20;99.90;;;;;;4965084;28;20191;-70
2023/09/25 10:23:43;;;;;;;5.17;2.20;;;19.20;99.90;;;;;;4974242;28;20312;-70
2023/09/25 10:26:19;;;;;;;7.60;2.17;;;19.20;99.90;;;;;;4974020;28;20218;-71
2023/09/25 10:28:56;;;;;;;7.27;1.87;;;19.10;99.90;;;;;;4974154;28;20277;-71
2023/09/25 10:31:29;;;;;;;7.20;2.53;;;19.00;99.90;;;;;;4967347;28;20212;-71
2023/09/25 10:34:04;;;;;;;7.90;2.43;;;18.90;99.90;;;;;;4992149;28;20198;-71
2023/09/25 10:36:42;;;;;;;7.60;2.00;;;18.90;99.90;;;;;;4992501;28;20187;-71
2023/09/25 10:39:14;;;;;;;11.03;2.50;;;18.80;99.90;;;;;;4991189;28;20189;-70
2023/09/25 10:41:49;;;;;;;7.53;2.40;;;18.80;99.90;;;;;;4975047;28;20564;-71
2023/09/25 10:44:17;;;;;;;7.27;2.37;;;18.70;99.90;;;;;;4972456;28;20564;-71
2023/09/25 10:46:46;;;;;;;11.63;2.00;;;18.70;99.90;;;;;;4970853;28;20200;-70
2023/09/25 10:49:14;;;;;;;7.60;2.10;;;18.60;99.90;;;;;;4955089;28;20188;-69
2023/09/25 10:51:41;;;;;;;3.13;2.03;;;18.50;99.90;;;;;;4972740;28;20646;-71
2023/09/25 10:54:10;;;;;;;6.20;2.27;;;18.40;99.90;;;;;;4953748;28;20258;-70
2023/09/25 10:56:38;;;;;;;8.40;2.43;;;18.40;99.90;;;;;;4972418;28;20867;-70
2023/09/25 10:59:07;;;;;;;6.67;2.90;;;18.40;99.90;;;;;;4971799;28;20191;-69
2023/09/25 11:01:36;;;;;;;11.77;3.50;;;18.40;99.90;;;;;;4972051;28;20222;-68
2023/09/25 11:04:05;;;;;;;7.27;3.03;;;18.30;99.90;;;;;;4939611;28;20190;-70
2023/09/25 11:06:34;;;;;;;8.17;3.23;;;18.30;99.90;;;;;;4955522;28;20290;-69
2023/09/25 11:09:11;;;;;;;8.03;3.03;;;18.20;99.90;;;;;;4947114;28;20187;-69
2023/09/25 11:11:40;;;;;;;14.43;3.27;;;18.10;99.90;;;;;;4976720;28;20185;-70
2023/09/25 11:14:08;;;;;;;7.80;3.10;;;18.10;99.90;;;;;;4972179;28;20179;-69
2023/09/25 11:16:36;;;;;;;7.60;2.73;;;18.00;99.90;;;;;;4972307;28;20278;-70
2023/09/25 11:19:10;;;;;;;9.33;3.10;;;17.90;99.90;;;;;;4972078;28;20646;-71
2023/09/25 11:21:39;;;;;;;8.30;3.23;;;17.80;99.90;;;;;;4971135;28;20516;-70
2023/09/25 11:24:11;;;;;;;10.87;2.97;;;17.70;99.90;;;;;;4971737;28;20260;-70
2023/09/25 11:26:44;;;;;;;5.47;2.63;;;17.60;99.90;;;;;;4972295;28;20243;-70
2023/09/25 11:29:13;;;;;;;6.67;3.20;;;17.60;99.90;;;;;;4972777;28;20207;-71
2023/09/25 11:31:42;;;;;;;6.50;2.93;;;17.60;99.90;;;;;;4991376;28;20194;-70
2023/09/25 11:34:11;;;;;;;8.73;2.80;;;17.50;99.90;;;;;;4973572;28;20659;-71
2023/09/25 11:36:48;;;;;;;7.30;2.90;;;17.50;99.90;;;;;;4975280;28;20649;-69
2023/09/25 11:39:16;;;;;;;7.60;3.10;;;17.40;99.90;;;;;;4991283;28;20196;-70
2023/09/25 11:41:47;;;;;;;7.87;2.93;;;17.30;99.90;;;;;;4959111;28;21080;-70
2023/09/25 11:44:15;;;;;;;8.33;2.80;;;17.20;99.90;;;;;;4964951;28;20563;-72
2023/09/25 11:46:45;;;;;;;9.70;2.87;;;17.10;99.90;;;;;;4971662;28;20653;-70
2023/09/25 11:49:13;;;;;;;7.20;2.63;;;17.00;99.90;;;;;;4971951;28;20176;-71
2023/09/25 11:51:44;;;;;;;7.30;2.70;;;16.90;99.90;;;;;;4971407;28;20203;-72
2023/09/25 11:54:12;;;;;;;6.33;2.63;;;16.80;99.90;;;;;;4971867;28;20190;-70
2023/09/25 11:56:41;;;;;;;8.07;2.80;;;16.90;99.90;;;;;;4972313;28;20553;-71
2023/09/25 11:59:11;;;;;;;7.87;3.33;;;16.90;99.90;;;;;;4989475;28;20186;-71
2023/09/25 12:01:39;;;;;;;9.77;2.93;;;17.00;99.90;;;;;;4994633;28;20187;-72
2023/09/25 12:04:09;;;;;;;9.47;3.20;;;17.00;99.90;;;;;;4976929;28;20225;-72
2023/09/25 12:06:37;;;;;;;9.80;3.20;;;16.90;99.90;;;;;;4993404;28;20249;-71
2023/09/25 12:09:11;;;;;;;8.73;3.10;;;16.90;99.90;;;;;;4994214;28;20222;-71
2023/09/25 12:11:40;;;;;;;7.13;3.33;;;16.80;99.90;;;;;;4976626;28;20718;-71
2023/09/25 12:14:08;;;;;;;5.10;2.90;;;16.90;99.90;;;;;;4984554;28;20238;-71
2023/09/25 12:16:36;;;;;;;11.63;3.00;;;16.80;99.90;;;;;;4975294;28;20553;-72
2023/09/25 12:19:04;;;;;;;8.80;3.10;;;16.80;99.90;;;;;;4974994;28;20179;-70
2023/09/25 12:21:33;;;;;;;10.30;3.13;;;16.80;99.90;;;;;;4988014;28;20202;-70
2023/09/25 12:24:01;;;;;;;4.87;2.67;;;16.60;99.90;;;;;;4977212;28;20230;-71
2023/09/25 12:26:30;;;;;;;6.47;3.40;;;16.60;99.90;;;;;;4994113;28;20226;-71
2023/09/25 12:28:58;;;;;;;4.70;2.53;;;16.50;99.90;;;;;;4993255;28;20175;-71
2023/09/25 12:38:10;;;;;;;6.23;3.17;;;16.30;99.90;;;;;;4988882;28;20613;-69
2023/09/25 12:40:38;;;;;;;11.73;3.60;;;16.30;99.90;;;;;;4989071;28;20689;-70
2023/09/25 12:43:05;;;;;;;6.87;3.27;;;16.30;99.90;;;;;;4974608;28;20379;-71
2023/09/25 12:45:33;;;;;;;5.20;3.10;;;16.30;99.90;;;;;;4974498;28;20699;-71
2023/09/25 12:48:01;;;;;;;6.23;3.23;;;16.30;99.90;;;;;;4980291;28;20724;-71
2023/09/25 12:50:29;;;;;;;8.40;2.90;;;16.20;99.90;;;;;;4986093;28;20567;-72
2023/09/25 12:52:57;;;;;;;9.30;2.40;;;16.10;99.90;;;;;;4974642;28;20214;-70
2023/09/25 12:55:27;;;;;;;7.17;2.87;;;16.00;99.90;;;;;;4974861;28;20290;-70
2023/09/25 12:57:55;;;;;;;7.67;3.13;;;15.90;99.90;;;;;;4956524;28;20187;-71
2023/09/25 13:00:24;;;;;;;6.77;2.70;;;15.90;99.90;;;;;;4990863;28;20552;-70
2023/09/25 13:02:53;;;;;;;11.10;2.80;;;15.90;99.90;;;;;;4980906;28;20629;-69
2023/09/25 13:05:21;;;;;;;7.00;2.80;;;15.80;99.90;;;;;;4992252;28;20211;-70
2023/09/25 13:07:49;;;;;;;8.87;2.90;;;15.80;99.90;;;;;;4981863;28;20179;-70
2023/09/25 13:10:19;;;;;;;11.93;3.07;;;15.80;99.90;;;;;;4973470;28;20191;-70
2023/09/25 13:12:46;;;;;;;4.93;2.60;;;15.80;99.90;;;;;;4974063;28;20704;-71
2023/09/25 13:15:19;;;;;;;9.10;3.20;;;15.70;99.90;;;;;;4974188;28;20686;-71
2023/09/25 13:17:49;;;;;;;7.27;2.87;;;15.70;99.90;;;;;;4974166;28;20183;-70
2023/09/25 13:20:17;;;;;;;7.73;2.80;;;15.60;99.90;;;;;;4973729;28;20622;-71